createdAt,value
2023-02-11T00:01:13.118Z,17.60
2023-02-11T00:03:43.793Z,16.52
2023-02-11T00:06:17.151Z,18.05
2023-02-11T00:08:47.970Z,17.75
2023-02-11T00:11:20.095Z,21.30
2023-02-11T00:13:51.272Z,19.08
2023-02-11T00:16:23.503Z,17.08
2023-02-11T00:18:54.430Z,18.48
2023-02-11T00:21:29.408Z,15.90
2023-02-11T00:24:02.462Z,17.17
2023-02-11T00:26:35.390Z,14.57
2023-02-11T00:29:07.386Z,17.05
2023-02-11T00:31:38.058Z,16.98
2023-02-11T00:34:09.253Z,17.98
2023-02-11T00:36:42.712Z,15.18
2023-02-11T00:39:13.552Z,16.58
2023-02-11T00:41:44.171Z,16.52
2023-02-11T00:44:16.599Z,15.07
2023-02-11T00:46:47.630Z,15.52
2023-02-11T00:49:18.746Z,16.45
2023-02-11T00:51:51.944Z,14.80
2023-02-11T00:54:23.879Z,17.30
2023-02-11T00:56:54.479Z,16.23
2023-02-11T00:59:25.201Z,14.20
2023-02-11T01:01:55.823Z,14.77
2023-02-11T01:04:26.709Z,14.63
2023-02-11T01:06:59.824Z,11.52
2023-02-11T01:09:30.385Z,12.48
2023-02-11T01:12:00.945Z,16.30
2023-02-11T01:14:31.637Z,15.07
2023-02-11T01:17:02.132Z,17.15
2023-02-11T01:19:32.772Z,14.70
2023-02-11T01:22:05.904Z,12.90
2023-02-11T01:24:36.540Z,14.30
2023-02-11T01:27:07.321Z,13.30
2023-02-11T01:29:37.886Z,12.52
2023-02-11T01:32:08.779Z,12.32
2023-02-11T01:34:39.433Z,13.50
2023-02-11T01:37:12.759Z,14.57
2023-02-11T01:39:43.280Z,16.00
2023-02-11T01:42:19.163Z,15.38
2023-02-11T01:44:52.499Z,15.70
2023-02-11T01:47:24.064Z,10.45
2023-02-11T01:49:58.885Z,15.38
2023-02-11T01:52:39.871Z,17.23
2023-02-11T01:55:26.472Z,14.45
2023-02-11T01:57:59.990Z,20.27
2023-02-11T02:00:36.844Z,13.90
2023-02-11T02:03:11.351Z,12.15
2023-02-11T02:05:49.044Z,10.63
2023-02-11T02:08:29.773Z,11.90
2023-02-11T02:11:01.264Z,11.82
2023-02-11T02:13:34.508Z,12.68
2023-02-11T02:16:29.267Z,11.88
2023-02-11T02:19:24.592Z,10.93
2023-02-11T02:22:36.864Z,12.77
2023-02-11T02:25:45.377Z,10.75
2023-02-11T02:28:36.713Z,12.82
2023-02-11T02:31:29.024Z,17.27
2023-02-11T02:34:05.456Z,16.60
2023-02-11T02:36:45.648Z,14.95
2023-02-11T02:39:20.520Z,14.23
2023-02-11T02:41:52.918Z,17.33
2023-02-11T02:44:24.395Z,17.27
2023-02-11T02:46:54.972Z,15.32
2023-02-11T02:49:28.243Z,20.77
2023-02-11T02:52:09.928Z,18.27
2023-02-11T02:55:20.995Z,12.65
2023-02-11T02:58:08.840Z,18.83
2023-02-11T03:00:47.139Z,14.68
2023-02-11T03:03:25.402Z,13.02
2023-02-11T03:06:04.501Z,12.90
2023-02-11T03:08:41.221Z,15.65
2023-02-11T03:11:13.346Z,13.95
2023-02-11T03:13:45.660Z,20.50
2023-02-11T03:16:20.808Z,24.15
2023-02-11T03:21:28.046Z,17.38
2023-02-11T03:26:34.368Z,14.27
2023-02-11T03:29:11.975Z,12.93
2023-02-11T03:31:50.728Z,13.55
2023-02-11T03:34:29.841Z,14.00
2023-02-11T03:37:06.809Z,11.80
2023-02-11T03:39:41.988Z,14.98
2023-02-11T03:44:50.062Z,13.05
2023-02-11T03:47:24.253Z,16.65
2023-02-11T03:49:56.564Z,19.25
2023-02-11T03:52:30.991Z,19.95
2023-02-11T03:55:05.642Z,17.70
2023-02-11T03:57:37.060Z,15.98
2023-02-11T04:00:09.667Z,18.33
2023-02-11T04:02:44.403Z,14.38
2023-02-11T04:05:18.012Z,14.50
2023-02-11T04:07:51.217Z,13.85
2023-02-11T04:10:21.902Z,15.18
2023-02-11T04:12:52.665Z,14.40
2023-02-11T04:15:23.366Z,11.35
2023-02-11T04:17:54.324Z,11.30
2023-02-11T04:20:24.982Z,15.32
2023-02-11T04:22:58.408Z,15.05
2023-02-11T04:25:29.507Z,9.65
2023-02-11T04:28:00.119Z,14.80
2023-02-11T04:30:31.083Z,10.05
2023-02-11T04:33:02.235Z,13.73
2023-02-11T04:35:32.812Z,14.05
2023-02-11T04:38:05.924Z,11.32
2023-02-11T04:40:36.498Z,11.55
2023-02-11T04:43:06.943Z,9.90
2023-02-11T04:45:37.992Z,9.45
2023-02-11T04:48:08.842Z,11.65
2023-02-11T04:50:39.428Z,11.43
2023-02-11T04:53:12.581Z,12.15
2023-02-11T04:55:43.216Z,11.00
2023-02-11T04:58:13.675Z,11.27
2023-02-11T05:00:44.294Z,13.95
2023-02-11T05:03:15.202Z,13.10
2023-02-11T05:05:46.271Z,14.10
2023-02-11T05:08:19.469Z,13.88
2023-02-11T05:10:50.789Z,14.40
2023-02-11T05:13:21.197Z,12.15
2023-02-11T05:15:52.253Z,14.45
2023-02-11T05:18:23.004Z,14.07
2023-02-11T05:20:53.680Z,17.30
2023-02-11T05:23:26.828Z,15.30
2023-02-11T05:25:57.395Z,14.32
2023-02-11T05:28:27.867Z,15.57
2023-02-11T05:30:59.041Z,13.15
2023-02-11T05:33:29.573Z,16.27
2023-02-11T05:36:02.446Z,15.48
2023-02-11T05:38:36.110Z,16.50
2023-02-11T05:41:08.022Z,19.17
2023-02-11T05:43:38.559Z,16.80
2023-02-11T05:46:09.397Z,15.20
2023-02-11T05:48:40.135Z,17.00
2023-02-11T05:51:10.932Z,15.20
2023-02-11T05:53:44.209Z,13.00
2023-02-11T05:56:14.816Z,15.52
2023-02-11T05:58:45.362Z,16.95
2023-02-11T06:01:15.937Z,18.98
2023-02-11T06:03:46.596Z,30.45
2023-02-11T06:06:17.262Z,33.22
2023-02-11T06:08:50.497Z,22.65
2023-02-11T06:11:21.442Z,20.42
2023-02-11T06:13:51.965Z,19.67
2023-02-11T06:16:22.742Z,18.80
2023-02-11T06:18:53.382Z,19.23
2023-02-11T06:21:33.525Z,21.60
2023-02-11T06:24:13.498Z,22.10
2023-02-11T06:26:44.265Z,19.35
2023-02-11T06:29:14.734Z,15.40
2023-02-11T06:31:45.696Z,18.17
2023-02-11T06:34:16.533Z,16.88
2023-02-11T06:36:47.181Z,14.88
2023-02-11T06:39:20.387Z,17.10
2023-02-11T06:41:50.909Z,20.00
2023-02-11T06:44:21.345Z,19.15
2023-02-11T06:46:52.059Z,19.63
2023-02-11T06:49:22.713Z,20.83
2023-02-11T06:51:53.425Z,32.88
2023-02-11T06:54:26.623Z,23.50
2023-02-11T06:56:57.360Z,21.02
2023-02-11T06:59:27.862Z,26.25
2023-02-11T07:01:58.530Z,23.70
2023-02-11T07:04:29.055Z,24.08
2023-02-11T07:06:59.752Z,32.45
2023-02-11T07:09:32.990Z,23.48
2023-02-11T07:12:03.601Z,37.90
2023-02-11T07:14:34.171Z,33.33
2023-02-11T07:17:05.165Z,33.13
2023-02-11T07:19:35.789Z,32.25
2023-02-11T07:22:06.487Z,32.63
2023-02-11T07:24:39.655Z,33.63
2023-02-11T07:27:10.321Z,41.65
2023-02-11T07:29:40.839Z,39.17
2023-02-11T07:32:11.678Z,40.80
2023-02-11T07:34:42.381Z,40.75
2023-02-11T07:37:12.987Z,40.60
2023-02-11T07:39:46.313Z,42.08
2023-02-11T07:42:17.096Z,42.22
2023-02-11T07:44:50.245Z,44.45
2023-02-11T07:47:21.241Z,46.38
2023-02-11T07:49:53.926Z,38.58
2023-02-11T07:52:26.040Z,30.23
2023-02-11T07:55:00.140Z,30.45
2023-02-11T07:57:30.754Z,28.95
2023-02-11T08:00:01.230Z,28.23
2023-02-11T08:02:41.383Z,25.75
2023-02-11T08:05:12.102Z,28.90
2023-02-11T08:07:42.651Z,26.20
2023-02-11T08:10:15.877Z,25.73
2023-02-11T08:12:46.494Z,27.83
2023-02-11T08:15:17.456Z,28.52
2023-02-11T08:17:48.230Z,29.45
2023-02-11T08:20:18.812Z,27.15
2023-02-11T08:22:49.599Z,28.00
2023-02-11T08:25:22.828Z,29.23
2023-02-11T08:27:53.552Z,27.38
2023-02-11T08:30:26.382Z,30.83
2023-02-11T08:32:58.123Z,33.28
2023-02-11T08:35:28.673Z,38.00
2023-02-11T08:37:59.535Z,35.92
2023-02-11T08:40:32.984Z,40.10
2023-02-11T08:43:05.223Z,41.63
2023-02-11T08:45:37.448Z,43.22
2023-02-11T08:48:08.196Z,35.35
2023-02-11T08:50:39.121Z,27.55
2023-02-11T08:53:09.841Z,28.02
2023-02-11T08:55:42.919Z,29.08
2023-02-11T08:58:13.517Z,27.38
2023-02-11T09:00:45.594Z,26.85
2023-02-11T09:03:16.744Z,23.25
2023-02-11T09:05:48.247Z,21.52
2023-02-11T09:08:19.516Z,18.45
2023-02-11T09:10:52.873Z,21.27
2023-02-11T09:13:23.656Z,20.58
2023-02-11T09:15:54.320Z,18.45
2023-02-11T09:18:24.966Z,18.92
2023-02-11T09:20:55.576Z,19.80
2023-02-11T09:23:26.224Z,18.33
2023-02-11T09:25:59.278Z,29.50
2023-02-11T09:28:29.924Z,19.75
2023-02-11T09:31:00.608Z,19.20
2023-02-11T09:33:31.338Z,20.08
2023-02-11T09:36:03.920Z,15.32
2023-02-11T09:38:34.789Z,11.98
2023-02-11T09:41:08.791Z,12.90
2023-02-11T09:43:46.708Z,11.23
2023-02-11T09:46:20.688Z,12.27
2023-02-11T09:48:53.928Z,11.75
2023-02-11T09:51:36.758Z,11.82
2023-02-11T09:54:14.904Z,13.18
2023-02-11T09:56:48.130Z,13.77
2023-02-11T09:59:20.445Z,15.35
2023-02-11T10:01:54.003Z,14.98
2023-02-11T10:04:42.705Z,11.88
2023-02-11T10:07:23.204Z,10.60
2023-02-11T10:10:06.402Z,10.25
2023-02-11T10:12:54.347Z,11.75
2023-02-11T10:15:32.152Z,8.48
2023-02-11T10:18:19.573Z,7.25
2023-02-11T10:21:01.813Z,8.85
2023-02-11T10:23:38.039Z,9.75
2023-02-11T10:26:15.900Z,6.32
2023-02-11T10:28:51.607Z,9.35
2023-02-11T10:31:30.256Z,10.40
2023-02-11T10:34:06.286Z,7.32
2023-02-11T10:36:39.822Z,7.35
2023-02-11T10:39:21.561Z,8.75
2023-02-11T10:41:55.685Z,6.95
2023-02-11T10:44:34.179Z,6.53
2023-02-11T10:47:08.579Z,6.13
2023-02-11T10:49:43.451Z,7.78
2023-02-11T10:52:21.662Z,6.55
2023-02-11T10:55:02.961Z,6.07
2023-02-11T10:57:40.163Z,6.70
2023-02-11T11:00:39.326Z,7.43
2023-02-11T11:03:26.034Z,8.13
2023-02-11T11:05:59.940Z,9.00
2023-02-11T11:08:42.898Z,10.18
2023-02-11T11:11:15.124Z,7.97
2023-02-11T11:13:58.581Z,6.95
2023-02-11T11:16:33.310Z,9.35
2023-02-11T11:19:23.261Z,7.40
2023-02-11T11:21:55.611Z,6.10
2023-02-11T11:24:30.279Z,6.57
2023-02-11T11:27:03.970Z,8.23
2023-02-11T11:29:37.839Z,9.27
2023-02-11T11:32:19.480Z,9.80
2023-02-11T11:34:54.270Z,7.55
2023-02-11T11:37:29.396Z,6.10
2023-02-11T11:40:03.462Z,7.30
2023-02-11T11:42:36.697Z,7.57
2023-02-11T11:45:26.032Z,7.00
2023-02-11T11:48:02.792Z,7.25
2023-02-11T11:50:38.923Z,5.65
2023-02-11T11:53:17.034Z,5.93
2023-02-11T11:55:51.480Z,6.38
2023-02-11T11:58:24.350Z,5.95
2023-02-11T12:01:01.906Z,5.97
2023-02-11T12:04:09.186Z,6.60
2023-02-11T12:06:48.814Z,6.95
2023-02-11T12:09:27.992Z,6.10
2023-02-11T12:12:15.795Z,5.55
2023-02-11T12:14:57.708Z,5.45
2023-02-11T12:17:47.582Z,5.93
2023-02-11T12:20:34.576Z,5.80
2023-02-11T12:23:24.014Z,6.47
2023-02-11T12:26:02.253Z,6.70
2023-02-11T12:28:42.050Z,7.13
2023-02-11T12:31:22.406Z,7.00
2023-02-11T12:34:10.698Z,6.35
2023-02-11T12:36:57.549Z,6.10
2023-02-11T12:39:43.334Z,5.47
2023-02-11T12:42:49.442Z,5.75
2023-02-11T12:45:29.695Z,5.80
2023-02-11T12:48:25.716Z,6.35
2023-02-11T12:51:04.765Z,6.05
2023-02-11T12:54:06.847Z,5.05
2023-02-11T12:56:43.295Z,5.40
2023-02-11T12:59:20.392Z,5.30
2023-02-11T13:01:54.362Z,6.40
2023-02-11T13:04:31.599Z,5.53
2023-02-11T13:07:08.738Z,6.35
2023-02-11T13:09:47.028Z,5.35
2023-02-11T13:12:31.192Z,5.32
2023-02-11T13:15:06.588Z,5.50
2023-02-11T13:17:47.134Z,6.18
2023-02-11T13:20:27.770Z,5.82
2023-02-11T13:23:04.020Z,5.35
2023-02-11T13:25:44.795Z,5.30
2023-02-11T13:28:36.819Z,5.53
2023-02-11T13:31:08.965Z,6.32
2023-02-11T13:33:43.280Z,8.48
2023-02-11T13:36:17.905Z,8.63
2023-02-11T13:38:57.701Z,11.17
2023-02-11T13:41:36.966Z,9.52
2023-02-11T13:44:22.697Z,7.22
2023-02-11T13:46:57.468Z,7.30
2023-02-11T13:49:32.110Z,7.30
2023-02-11T13:52:04.577Z,5.32
2023-02-11T13:54:40.429Z,6.10
2023-02-11T13:57:33.252Z,9.57
2023-02-11T14:00:06.354Z,9.93
2023-02-11T14:02:52.329Z,10.55
2023-02-11T14:05:46.567Z,9.45
2023-02-11T14:08:39.896Z,9.60
2023-02-11T14:11:27.656Z,9.45
2023-02-11T14:14:24.095Z,11.77
2023-02-11T14:17:23.876Z,7.78
2023-02-11T14:19:54.708Z,9.20
2023-02-11T14:22:28.993Z,9.65
2023-02-11T14:25:02.433Z,8.45
2023-02-11T14:27:41.569Z,8.48
2023-02-11T14:30:35.258Z,9.55
2023-02-11T14:33:22.774Z,8.32
2023-02-11T14:36:06.010Z,8.65
2023-02-11T14:38:45.632Z,8.25
2023-02-11T14:41:22.756Z,8.77
2023-02-11T14:43:55.815Z,8.98
2023-02-11T14:46:30.993Z,8.48
2023-02-11T14:49:04.591Z,8.13
2023-02-11T14:51:39.239Z,8.73
2023-02-11T14:54:17.128Z,8.13
2023-02-11T14:56:48.250Z,9.45
2023-02-11T14:59:22.176Z,8.60
2023-02-11T15:01:57.376Z,10.35
2023-02-11T15:04:31.098Z,12.43
2023-02-11T15:07:06.629Z,9.18
2023-02-11T15:12:20.501Z,14.07
2023-02-11T15:14:53.718Z,14.15
2023-02-11T15:17:29.236Z,12.77
2023-02-11T15:22:37.033Z,29.95
2023-02-11T15:25:16.512Z,35.75
2023-02-11T15:27:48.594Z,35.08
2023-02-11T15:30:29.965Z,36.85
2023-02-11T15:33:06.257Z,38.70
2023-02-11T15:35:41.275Z,41.05
2023-02-11T15:38:16.104Z,45.13
2023-02-11T15:40:56.053Z,50.65
2023-02-11T15:43:26.444Z,41.50
2023-02-11T15:46:03.285Z,41.92
2023-02-11T15:48:40.991Z,40.28
2023-02-11T15:51:22.155Z,42.90
2023-02-11T15:53:57.173Z,38.60
2023-02-11T15:56:34.657Z,40.22
2023-02-11T15:59:19.236Z,32.83
2023-02-11T16:01:51.711Z,27.00
2023-02-11T16:04:27.582Z,31.83
2023-02-11T16:06:59.278Z,26.73
2023-02-11T16:09:36.089Z,26.08
2023-02-11T16:12:09.778Z,38.75
2023-02-11T16:14:40.312Z,38.65
2023-02-11T16:17:14.349Z,39.72
2023-02-11T16:19:51.710Z,43.58
2023-02-11T16:22:25.965Z,42.17
2023-02-11T16:25:00.376Z,43.83
2023-02-11T16:27:36.574Z,40.50
2023-02-11T16:30:08.078Z,37.85
2023-02-11T16:32:38.739Z,39.30
2023-02-11T16:35:15.434Z,38.47
2023-02-11T16:37:45.906Z,39.47
2023-02-11T16:40:17.222Z,41.47
2023-02-11T16:42:47.785Z,42.95
2023-02-11T16:45:18.864Z,45.72
2023-02-11T16:47:49.551Z,51.42
2023-02-11T16:53:44.581Z,62.58
2023-02-11T16:56:19.432Z,47.88
2023-02-11T16:58:49.912Z,43.53
2023-02-11T17:01:20.499Z,49.92
2023-02-11T17:03:51.721Z,51.65
2023-02-11T17:06:24.472Z,61.05
2023-02-11T17:08:57.611Z,65.25
2023-02-11T17:11:28.417Z,57.58
2023-02-11T17:13:58.910Z,69.75
2023-02-11T17:16:30.125Z,65.95
2023-02-11T17:19:00.867Z,65.57
2023-02-11T17:21:32.293Z,86.97
2023-02-11T17:24:05.528Z,66.70
2023-02-11T17:26:37.120Z,67.93
2023-02-11T17:29:08.447Z,83.57
2023-02-11T17:31:39.755Z,55.33
2023-02-11T17:34:10.795Z,49.20
2023-02-11T17:36:41.587Z,49.58
2023-02-11T17:39:15.494Z,43.85
2023-02-11T17:41:46.087Z,62.55
2023-02-11T17:44:17.195Z,50.50
2023-02-11T17:46:47.930Z,45.65
2023-02-11T17:49:18.492Z,63.28
2023-02-11T17:51:49.953Z,65.38
2023-02-11T17:54:23.565Z,57.05
2023-02-11T17:56:57.813Z,40.97
2023-02-11T17:59:31.872Z,40.40
2023-02-11T18:02:02.526Z,81.45
2023-02-11T18:04:33.352Z,55.85
2023-02-11T18:07:04.739Z,59.28
2023-02-11T18:09:39.938Z,57.75
2023-02-11T18:12:11.446Z,50.38
2023-02-11T18:14:42.598Z,49.45
2023-02-11T18:17:13.532Z,47.25
2023-02-11T18:19:44.348Z,44.00
2023-02-11T18:22:15.449Z,38.90
2023-02-11T18:24:49.162Z,42.45
2023-02-11T18:27:19.920Z,48.95
2023-02-11T18:29:50.778Z,47.55
2023-02-11T18:32:21.431Z,44.25
2023-02-11T18:34:51.920Z,41.85
2023-02-11T18:37:22.557Z,40.80
2023-02-11T18:39:55.988Z,41.20
2023-02-11T18:42:26.596Z,41.58
2023-02-11T18:44:57.244Z,44.25
2023-02-11T18:47:27.921Z,40.58
2023-02-11T18:49:58.431Z,40.00
2023-02-11T18:52:29.037Z,38.88
2023-02-11T18:55:02.213Z,36.97
2023-02-11T18:57:33.838Z,37.92
2023-02-11T19:00:04.427Z,38.72
2023-02-11T19:02:35.412Z,39.40
2023-02-11T19:05:06.681Z,42.88
2023-02-11T19:07:37.407Z,40.50
2023-02-11T19:10:11.565Z,41.05
2023-02-11T19:12:43.477Z,43.17
2023-02-11T19:15:14.488Z,39.80
2023-02-11T19:17:45.203Z,40.22
2023-02-11T19:20:15.803Z,41.22
2023-02-11T19:22:47.369Z,40.20
2023-02-11T19:25:20.605Z,38.35
2023-02-11T19:27:51.245Z,42.53
2023-02-11T19:30:22.159Z,41.67
2023-02-11T19:32:56.134Z,42.47
2023-02-11T19:35:27.366Z,45.60
2023-02-11T19:37:58.029Z,47.47
2023-02-11T19:40:31.220Z,50.47
2023-02-11T19:43:01.981Z,45.58
2023-02-11T19:45:32.488Z,47.60
2023-02-11T19:48:03.077Z,45.15
2023-02-11T19:50:33.728Z,40.05
2023-02-11T19:53:05.241Z,38.63
2023-02-11T19:55:40.424Z,43.72
2023-02-11T19:58:11.197Z,41.78
2023-02-11T20:00:42.201Z,43.30
2023-02-11T20:03:13.264Z,41.80
2023-02-11T20:05:47.371Z,40.55
2023-02-11T20:08:18.793Z,43.25
2023-02-11T20:10:51.977Z,42.72
2023-02-11T20:13:23.210Z,37.03
2023-02-11T20:15:54.057Z,39.55
2023-02-11T20:18:25.111Z,43.67
2023-02-11T20:20:55.689Z,41.78
2023-02-11T20:23:26.238Z,37.15
2023-02-11T20:25:59.539Z,33.05
2023-02-11T20:28:30.304Z,37.75
2023-02-11T20:31:01.194Z,33.88
2023-02-11T20:33:32.881Z,41.28
2023-02-11T20:36:05.314Z,37.40
2023-02-11T20:38:36.071Z,36.92
2023-02-11T20:41:14.007Z,45.75
2023-02-11T20:43:46.158Z,32.40
2023-02-11T20:46:18.350Z,33.60
2023-02-11T20:48:49.415Z,32.08
2023-02-11T20:51:23.437Z,29.08
2023-02-11T20:53:55.100Z,31.30
2023-02-11T20:56:30.337Z,31.23
2023-02-11T20:59:02.371Z,32.00
2023-02-11T21:01:35.422Z,40.03
2023-02-11T21:04:08.467Z,32.92
2023-02-11T21:06:41.382Z,29.60
2023-02-11T21:09:13.913Z,34.70
2023-02-11T21:11:46.987Z,34.25
2023-02-11T21:14:18.591Z,51.75
2023-02-11T21:16:49.414Z,36.53
2023-02-11T21:19:21.446Z,40.65
2023-02-11T21:21:52.199Z,30.35
2023-02-11T21:24:23.174Z,38.92
2023-02-11T21:26:56.358Z,28.95
2023-02-11T21:29:26.992Z,52.53
2023-02-11T21:31:57.633Z,34.80
2023-02-11T21:34:28.310Z,37.40
2023-02-11T21:36:58.881Z,27.73
2023-02-11T21:39:29.529Z,29.23
2023-02-11T21:42:02.721Z,28.95
2023-02-11T21:44:33.685Z,32.88
2023-02-11T21:47:04.530Z,30.30
2023-02-11T21:49:35.126Z,26.42
2023-02-11T21:52:05.606Z,25.05
2023-02-11T21:54:36.280Z,23.85
2023-02-11T21:57:09.489Z,25.52
2023-02-11T21:59:40.059Z,26.83
2023-02-11T22:02:11.619Z,25.70
2023-02-11T22:04:42.810Z,28.83
2023-02-11T22:07:13.368Z,23.65
2023-02-11T22:09:44.842Z,24.58
2023-02-11T22:12:18.123Z,23.75
2023-02-11T22:14:48.692Z,24.25
2023-02-11T22:17:19.216Z,25.75
2023-02-11T22:19:49.809Z,24.02
2023-02-11T22:22:21.427Z,23.58
2023-02-11T22:24:52.144Z,21.35
2023-02-11T22:27:25.787Z,20.70
2023-02-11T22:29:56.305Z,18.80
2023-02-11T22:32:27.066Z,17.23
2023-02-11T22:34:57.694Z,18.75
2023-02-11T22:37:28.275Z,18.65
2023-02-11T22:39:58.866Z,19.35
2023-02-11T22:42:32.017Z,18.38
2023-02-11T22:45:03.310Z,17.95
2023-02-11T22:47:36.496Z,16.20
2023-02-11T22:50:08.105Z,17.48
2023-02-11T22:52:39.472Z,19.15
2023-02-11T22:55:10.648Z,26.75
2023-02-11T22:57:45.359Z,23.98
2023-02-11T23:00:17.777Z,25.42
2023-02-11T23:02:49.100Z,27.33
2023-02-11T23:05:20.091Z,40.25
2023-02-11T23:07:50.638Z,44.47
2023-02-11T23:10:22.461Z,53.00
2023-02-11T23:12:56.549Z,36.00
2023-02-11T23:15:27.492Z,25.27
2023-02-11T23:17:58.210Z,27.20
2023-02-11T23:20:29.068Z,21.25
2023-02-11T23:22:59.640Z,16.60
2023-02-11T23:25:30.651Z,15.60
2023-02-11T23:28:04.086Z,16.50
2023-02-11T23:30:35.448Z,20.83
2023-02-11T23:33:06.394Z,31.45
2023-02-11T23:35:37.440Z,44.97
2023-02-11T23:38:08.450Z,44.15
2023-02-11T23:40:39.106Z,43.85
2023-02-11T23:43:12.491Z,27.20
2023-02-11T23:45:43.088Z,18.27
2023-02-11T23:48:13.919Z,16.75
2023-02-11T23:50:45.029Z,17.58
2023-02-11T23:53:15.877Z,16.25
2023-02-11T23:55:47.757Z,21.75
2023-02-11T23:58:20.924Z,19.63
